Terminal Aerodrome Forecast
Issued by NWS Portland, ME

Home | Current Version | Previous Version | Text Only | Print | Product List | Glossary On
Versions: 1 2 3 4 5 6 7 8 9 10 11 12 13 14 15
000
FTUS41 KGYX 292320
TAFCON
TAF
KCON 292320Z 3000/3024 VRB03KT P6SM BKN250
      TEMPO 3010/3013 2SM BR SCT003
     FM301700 19008KT P6SM BKN250=

USA.gov is the U.S. government's official web portal to all federal, state and local government web resources and services.